Current | Forecast
Updated: 5:30 PM JST on April 30, 2017
Observed at Kansai, Japan
Temperature 70°F
Humidity 53%
Dew Point 52°F
Wind SSW at 21 mph
Pressure 29.83 in (Steady)
Conditions Clear
Visibility -
UV N/A
Clouds
Yesterday's Maximum 70°F
Yesterday's Minimum 57°F approx.
Yesterday's Heating Degree Days 1 approx.
Sunrise5:09 AM JST
Sunset6:39 PM JST
Moon Rise8:25 AM JST
Moon Set10:45 PM JST
Moon PhaseMoon Phase
Waxing Crescent
Raw METARMETAR RJBB 300830Z 21018KT CAVOK 21/11 Q1010 NOSIG


Monday
. High: 71° F.
Tuesday
. High: 71° F.
Wednesday
. High: 75° F.
Thursday
. High: 71° F.
Friday
. High: 73° F.
Saturday
. High: 77° F.
Sunday
. High: 75° F.
Monday
. High: 78° F.

Units: English | Metric

Find the Weather for any City, State or Zipcode, or Country:

U.S. State List | Severe Weather | Tropical Storms | Ski Conditions
United States | Canada | Central America | South America | Asia | Europe | Australia | Africa | Islands

Weather Underground

© Copyright 2017
The Weather Company, LLC